createdAt,value
2018-08-13T00:01:58.731Z,3.40
2018-08-13T00:04:29.287Z,1.90
2018-08-13T00:06:59.780Z,4.70
2018-08-13T00:09:35.272Z,2.40
2018-08-13T00:12:05.880Z,3.07
2018-08-13T00:14:36.393Z,2.37
2018-08-13T00:17:06.994Z,5.10
2018-08-13T00:19:37.741Z,2.63
2018-08-13T00:22:08.191Z,4.30
2018-08-13T00:24:38.755Z,2.53
2018-08-13T00:27:09.289Z,4.00
2018-08-13T00:29:39.895Z,2.20
2018-08-13T00:32:10.294Z,4.77
2018-08-13T00:34:40.711Z,2.20
2018-08-13T00:37:11.212Z,11.23
2018-08-13T00:39:41.791Z,5.73
2018-08-13T00:42:12.352Z,3.33
2018-08-13T00:44:42.962Z,3.33
2018-08-13T00:47:13.533Z,4.83
2018-08-13T00:49:44.138Z,5.80
2018-08-13T00:52:14.605Z,4.23
2018-08-13T00:54:45.323Z,5.93
2018-08-13T00:57:15.886Z,4.23
2018-08-13T00:59:46.367Z,4.90
2018-08-13T01:02:16.721Z,3.70
2018-08-13T01:04:47.365Z,4.10
2018-08-13T01:07:17.808Z,6.37
2018-08-13T01:09:48.394Z,3.00
2018-08-13T01:12:18.952Z,2.87
2018-08-13T01:14:49.585Z,9.60
2018-08-13T01:17:20.048Z,6.23
2018-08-13T01:19:50.437Z,5.20
2018-08-13T01:22:20.937Z,7.50
2018-08-13T01:24:51.570Z,6.03
2018-08-13T01:27:27.140Z,2.30
2018-08-13T01:29:57.409Z,4.60
2018-08-13T01:32:28.156Z,7.57
2018-08-13T01:34:58.926Z,5.10
2018-08-13T01:37:29.675Z,6.13
2018-08-13T01:40:00.335Z,3.20
2018-08-13T01:42:30.715Z,4.50
2018-08-13T01:45:01.282Z,9.80
2018-08-13T01:47:31.913Z,4.83
2018-08-13T01:50:02.419Z,11.97
2018-08-13T01:52:33.085Z,5.13
2018-08-13T01:55:03.666Z,6.57
2018-08-13T01:57:34.339Z,3.20
2018-08-13T02:00:06.568Z,4.80
2018-08-13T02:02:36.941Z,6.10
2018-08-13T02:05:08.043Z,4.30
2018-08-13T02:07:38.995Z,6.23
2018-08-13T02:10:11.708Z,8.27
2018-08-13T02:12:42.546Z,3.83
2018-08-13T02:15:13.215Z,5.33
2018-08-13T02:17:43.805Z,6.63
2018-08-13T02:20:14.486Z,4.57
2018-08-13T02:22:45.224Z,6.60
2018-08-13T02:25:15.733Z,9.50
2018-08-13T02:27:46.332Z,4.53
2018-08-13T02:30:17.026Z,6.20
2018-08-13T02:32:47.609Z,6.17
2018-08-13T02:35:18.053Z,6.63
2018-08-13T02:37:48.500Z,6.50
2018-08-13T02:40:19.044Z,5.20
2018-08-13T02:42:49.670Z,11.80
2018-08-13T02:45:20.239Z,4.40
2018-08-13T02:47:50.860Z,7.20
2018-08-13T02:50:21.291Z,4.13
2018-08-13T02:52:51.826Z,5.13
2018-08-13T02:55:22.305Z,7.33
2018-08-13T02:57:52.636Z,3.47
2018-08-13T03:00:23.136Z,7.50
2018-08-13T03:02:53.618Z,3.80
2018-08-13T03:05:24.208Z,5.77
2018-08-13T03:07:54.778Z,8.27
2018-08-13T03:10:25.486Z,3.60
2018-08-13T03:12:55.776Z,4.20
2018-08-13T03:15:26.285Z,6.63
2018-08-13T03:17:56.870Z,4.33
2018-08-13T03:20:27.473Z,7.40
2018-08-13T03:22:58.045Z,6.30
2018-08-13T03:25:28.641Z,4.30
2018-08-13T03:27:59.213Z,7.73
2018-08-13T03:30:29.812Z,3.33
2018-08-13T03:33:00.407Z,3.57
2018-08-13T03:35:30.815Z,5.30
2018-08-13T03:38:01.143Z,3.73
2018-08-13T03:40:31.660Z,2.93
2018-08-13T03:43:02.275Z,4.70
2018-08-13T03:45:32.930Z,7.10
2018-08-13T03:48:03.446Z,4.57
2018-08-13T03:50:34.067Z,3.40
2018-08-13T03:53:04.697Z,13.13
2018-08-13T03:55:35.212Z,4.47
2018-08-13T03:58:05.901Z,6.00
2018-08-13T04:00:36.359Z,5.60
2018-08-13T04:03:07.495Z,12.03
2018-08-13T04:05:37.962Z,8.83
2018-08-13T04:08:08.711Z,4.00
2018-08-13T04:10:39.367Z,9.57
2018-08-13T04:13:10.033Z,6.93
2018-08-13T04:15:40.707Z,5.33
2018-08-13T04:18:11.502Z,10.77
2018-08-13T04:20:42.204Z,4.53
2018-08-13T04:23:12.793Z,6.40
2018-08-13T04:25:43.378Z,5.73
2018-08-13T04:28:13.844Z,7.03
2018-08-13T04:30:44.384Z,9.10
2018-08-13T04:33:14.806Z,3.23
2018-08-13T04:35:45.410Z,8.70
2018-08-13T04:38:15.953Z,5.47
2018-08-13T04:40:46.477Z,14.53
2018-08-13T04:43:17.144Z,5.80
2018-08-13T04:45:47.629Z,7.37
2018-08-13T04:48:17.694Z,11.43
2018-08-13T04:50:47.840Z,8.60
2018-08-13T04:53:18.252Z,6.20
2018-08-13T04:55:48.736Z,5.50
2018-08-13T04:58:18.800Z,3.90
2018-08-13T05:00:49.394Z,4.53
2018-08-13T05:03:19.873Z,5.83
2018-08-13T05:05:50.455Z,5.90
2018-08-13T05:08:21.011Z,4.83
2018-08-13T05:10:51.792Z,6.20
2018-08-13T05:13:22.420Z,10.67
2018-08-13T05:15:52.944Z,6.17
2018-08-13T05:18:23.267Z,8.13
2018-08-13T05:20:53.845Z,10.00
2018-08-13T05:23:24.316Z,9.17
2018-08-13T05:25:54.933Z,8.60
2018-08-13T05:28:25.437Z,11.80
2018-08-13T05:30:56.067Z,9.67
2018-08-13T05:33:26.579Z,13.73
2018-08-13T05:35:57.132Z,8.73
2018-08-13T05:38:27.349Z,7.50
2018-08-13T05:40:57.808Z,5.30
2018-08-13T05:43:28.384Z,8.40
2018-08-13T05:45:59.008Z,8.13
2018-08-13T05:48:29.693Z,5.17
2018-08-13T05:51:00.275Z,7.87
2018-08-13T05:53:30.832Z,6.53
2018-08-13T05:56:01.405Z,7.33
2018-08-13T05:58:31.908Z,9.03
2018-08-13T06:01:02.508Z,8.50
2018-08-13T06:03:33.288Z,8.07
2018-08-13T06:06:04.028Z,14.20
2018-08-13T06:08:34.542Z,5.50
2018-08-13T06:11:05.288Z,11.43
2018-08-13T06:13:35.936Z,18.50
2018-08-13T06:16:06.517Z,9.43
2018-08-13T06:18:37.104Z,13.47
2018-08-13T06:21:07.724Z,9.93
2018-08-13T06:23:38.203Z,18.00
2018-08-13T06:26:08.899Z,7.00
2018-08-13T06:28:39.412Z,11.30
2018-08-13T06:31:10.059Z,12.87
2018-08-13T06:33:40.599Z,16.17
2018-08-13T06:36:11.083Z,13.43
2018-08-13T06:38:41.772Z,15.37
2018-08-13T06:41:12.459Z,12.70
2018-08-13T06:43:43.204Z,17.20
2018-08-13T06:46:13.919Z,17.27
2018-08-13T06:48:44.519Z,22.57
2018-08-13T06:51:14.928Z,20.70
2018-08-13T06:53:45.440Z,17.53
2018-08-13T06:56:16.040Z,13.60
2018-08-13T06:58:46.635Z,11.43
2018-08-13T07:01:17.269Z,10.07
2018-08-13T07:03:47.783Z,16.07
2018-08-13T07:06:18.391Z,12.57
2018-08-13T07:08:48.949Z,9.70
2018-08-13T07:11:19.502Z,12.43
2018-08-13T07:13:50.035Z,6.77
2018-08-13T07:16:20.724Z,6.57
2018-08-13T07:18:51.233Z,8.23
2018-08-13T07:21:21.831Z,8.60
2018-08-13T07:23:52.334Z,18.77
2018-08-13T07:26:22.766Z,9.93
2018-08-13T07:28:53.132Z,9.03
2018-08-13T07:31:23.602Z,15.20
2018-08-13T07:33:54.204Z,6.03
2018-08-13T07:36:24.766Z,5.50
2018-08-13T07:38:55.353Z,7.63
2018-08-13T07:41:25.789Z,8.87
2018-08-13T07:43:56.283Z,10.83
2018-08-13T07:46:26.853Z,7.60
2018-08-13T07:48:57.342Z,10.20
2018-08-13T07:51:28.022Z,10.03
2018-08-13T07:53:58.578Z,8.17
2018-08-13T07:56:29.178Z,4.60
2018-08-13T07:58:59.842Z,20.17
2018-08-13T08:01:30.435Z,7.60
2018-08-13T08:04:00.791Z,11.67
2018-08-13T08:06:31.254Z,7.90
2018-08-13T08:09:01.713Z,8.23
2018-08-13T08:11:32.342Z,5.67
2018-08-13T08:14:02.956Z,13.33
2018-08-13T08:16:33.637Z,10.20
2018-08-13T08:19:04.315Z,11.17
2018-08-13T08:21:35.005Z,11.20
2018-08-13T08:24:05.692Z,14.70
2018-08-13T08:26:36.383Z,11.33
2018-08-13T08:29:08.270Z,12.20
2018-08-13T08:31:38.871Z,12.30
2018-08-13T08:34:10.608Z,9.27
2018-08-13T08:36:41.206Z,13.03
2018-08-13T08:39:13.866Z,14.33
2018-08-13T08:41:44.979Z,8.20
2018-08-13T08:44:15.372Z,14.93
2018-08-13T08:46:45.964Z,13.67
2018-08-13T08:49:16.463Z,10.57
2018-08-13T08:51:47.167Z,7.30
2018-08-13T08:54:17.509Z,12.40
2018-08-13T08:56:47.885Z,13.93
2018-08-13T08:59:18.364Z,11.20
2018-08-13T09:01:48.942Z,9.17
2018-08-13T09:04:20.441Z,17.23
2018-08-13T09:06:50.904Z,11.30
2018-08-13T09:09:21.092Z,8.77
2018-08-13T09:11:51.676Z,5.33
2018-08-13T09:14:22.200Z,4.60
2018-08-13T09:16:53.820Z,3.73
2018-08-13T09:19:41.256Z,3.67
2018-08-13T09:22:28.184Z,2.97
2018-08-13T09:25:15.222Z,9.10
2018-08-13T09:28:02.183Z,8.80
2018-08-13T09:30:49.183Z,6.73
2018-08-13T09:33:35.992Z,10.93
2018-08-13T09:36:06.547Z,17.53
2018-08-13T09:38:37.121Z,30.57
2018-08-13T09:41:07.646Z,17.70
2018-08-13T09:43:38.373Z,6.90
2018-08-13T09:46:09.236Z,14.93
2018-08-13T09:48:39.860Z,12.63
2018-08-13T09:51:10.456Z,21.37
2018-08-13T09:53:41.062Z,13.10
2018-08-13T09:56:11.718Z,5.17
2018-08-13T09:58:42.404Z,3.30
2018-08-13T10:01:13.558Z,6.40
2018-08-13T10:03:44.199Z,9.23
2018-08-13T10:06:14.676Z,14.17
2018-08-13T10:08:45.247Z,7.83
2018-08-13T10:11:15.938Z,6.80
2018-08-13T10:13:46.649Z,14.90
2018-08-13T10:16:17.186Z,6.47
2018-08-13T10:18:47.896Z,4.60
2018-08-13T10:21:18.476Z,3.63
2018-08-13T10:23:57.144Z,2.80
2018-08-13T10:26:27.884Z,9.30
2018-08-13T10:28:58.383Z,2.13
2018-08-13T10:31:29.009Z,8.33
2018-08-13T10:33:59.461Z,15.80
2018-08-13T10:36:31.249Z,4.43
2018-08-13T10:39:01.772Z,5.53
2018-08-13T10:41:32.256Z,5.40
2018-08-13T10:44:02.862Z,11.20
2018-08-13T10:46:33.411Z,6.70
2018-08-13T10:49:04.428Z,7.93
2018-08-13T10:51:35.029Z,8.73
2018-08-13T10:54:05.764Z,5.47
2018-08-13T10:56:36.377Z,2.93
2018-08-13T10:59:07.261Z,5.87
2018-08-13T11:01:37.844Z,2.57
2018-08-13T11:04:08.555Z,7.60
2018-08-13T11:06:39.226Z,9.90
2018-08-13T11:09:11.559Z,2.67
2018-08-13T11:11:42.133Z,3.70
2018-08-13T11:14:12.544Z,3.43
2018-08-13T11:16:43.244Z,2.60
2018-08-13T11:19:13.775Z,2.13
2018-08-13T11:21:44.375Z,6.23
2018-08-13T11:24:14.924Z,6.93
2018-08-13T11:26:45.582Z,6.80
2018-08-13T11:29:16.194Z,6.20
2018-08-13T11:31:46.805Z,4.20
2018-08-13T11:34:17.503Z,4.13
2018-08-13T11:36:48.081Z,4.20
2018-08-13T11:39:18.745Z,5.77
2018-08-13T11:41:49.344Z,8.00
2018-08-13T11:44:19.939Z,6.23
2018-08-13T11:46:50.332Z,2.80
2018-08-13T11:49:20.800Z,2.33
2018-08-13T11:51:51.352Z,1.57
2018-08-13T11:54:22.011Z,4.40
2018-08-13T11:56:52.564Z,5.30
2018-08-13T11:59:23.397Z,2.20
2018-08-13T12:01:53.920Z,3.47
2018-08-13T12:04:24.411Z,4.43
2018-08-13T12:06:54.977Z,2.30
2018-08-13T12:09:25.636Z,2.20
2018-08-13T12:11:56.248Z,4.27
2018-08-13T12:14:26.638Z,3.90
2018-08-13T12:16:56.871Z,5.03
2018-08-13T12:19:27.485Z,2.20
2018-08-13T12:21:58.076Z,3.30
2018-08-13T12:24:28.672Z,1.40
2018-08-13T12:26:59.035Z,6.40
2018-08-13T12:29:29.536Z,3.83
2018-08-13T12:32:00.115Z,2.63
2018-08-13T12:34:30.546Z,3.90
2018-08-13T12:37:06.130Z,3.50
2018-08-13T12:39:36.815Z,2.57
2018-08-13T12:42:08.316Z,4.43
2018-08-13T12:44:39.047Z,2.30
2018-08-13T12:47:09.859Z,9.83
2018-08-13T12:49:41.464Z,1.83
2018-08-13T12:52:12.050Z,2.10
2018-08-13T12:54:42.728Z,10.83
2018-08-13T12:57:13.440Z,3.73
2018-08-13T12:59:45.949Z,1.90
2018-08-13T13:02:16.580Z,2.43
2018-08-13T13:04:47.339Z,4.73
2018-08-13T13:07:17.820Z,5.50
2018-08-13T13:09:48.492Z,3.40
2018-08-13T13:12:19.076Z,2.67
2018-08-13T13:14:49.415Z,7.87
2018-08-13T13:17:19.934Z,3.30
2018-08-13T13:19:50.634Z,2.50
2018-08-13T13:22:21.113Z,2.57
2018-08-13T13:24:51.775Z,3.70
2018-08-13T13:27:22.273Z,5.37
2018-08-13T13:29:52.868Z,1.63
2018-08-13T13:32:23.304Z,2.20
2018-08-13T13:34:54.028Z,3.40
2018-08-13T13:37:24.709Z,2.30
2018-08-13T13:39:55.198Z,2.00
2018-08-13T13:42:25.691Z,4.13
2018-08-13T13:44:56.130Z,2.33
2018-08-13T13:47:26.616Z,5.00
2018-08-13T13:49:57.236Z,2.00
2018-08-13T13:52:27.818Z,1.80
2018-08-13T13:54:58.658Z,2.60
2018-08-13T13:57:29.196Z,3.37
2018-08-13T13:59:59.764Z,1.70
2018-08-13T14:02:30.304Z,1.93
2018-08-13T14:05:00.851Z,3.13
2018-08-13T14:07:31.308Z,6.07
2018-08-13T14:10:01.923Z,2.70
2018-08-13T14:12:32.493Z,1.90
2018-08-13T14:15:03.160Z,1.70
2018-08-13T14:17:33.787Z,3.00
2018-08-13T14:20:04.460Z,1.80
2018-08-13T14:22:35.044Z,3.60
2018-08-13T14:25:06.376Z,1.70
2018-08-13T14:27:36.863Z,1.77
2018-08-13T14:30:13.000Z,2.70
2018-08-13T14:32:43.531Z,1.50
2018-08-13T14:35:14.145Z,4.60
2018-08-13T14:37:44.755Z,1.70
2018-08-13T14:40:15.387Z,2.20
2018-08-13T14:42:46.189Z,1.93
2018-08-13T14:45:18.061Z,1.67
2018-08-13T14:47:50.139Z,3.60
2018-08-13T14:50:20.865Z,1.60
2018-08-13T14:52:51.433Z,4.63
2018-08-13T14:55:23.349Z,1.80
2018-08-13T14:57:53.822Z,6.30
2018-08-13T15:00:34.347Z,2.27
2018-08-13T15:03:07.105Z,1.93
2018-08-13T15:05:37.788Z,1.73
2018-08-13T15:08:08.653Z,6.13
2018-08-13T15:10:39.152Z,4.33
2018-08-13T15:13:09.675Z,1.80
2018-08-13T15:15:40.293Z,3.80
2018-08-13T15:18:10.837Z,2.93
2018-08-13T15:20:41.829Z,1.27
2018-08-13T15:23:12.371Z,1.63
2018-08-13T15:25:43.001Z,1.60
2018-08-13T15:28:13.724Z,1.67
2018-08-13T15:30:44.321Z,1.20
2018-08-13T15:33:14.915Z,1.37
2018-08-13T15:35:45.758Z,1.43
2018-08-13T15:38:16.065Z,2.90
2018-08-13T15:40:46.584Z,2.20
2018-08-13T15:43:17.079Z,4.13
2018-08-13T15:45:47.610Z,2.03
2018-08-13T15:48:18.207Z,3.60
2018-08-13T15:50:48.865Z,2.77
2018-08-13T15:53:19.416Z,2.27
2018-08-13T15:55:49.841Z,3.17
2018-08-13T15:58:20.343Z,2.50
2018-08-13T16:00:50.930Z,1.73
2018-08-13T16:03:21.554Z,1.60
2018-08-13T16:05:52.215Z,2.40
2018-08-13T16:08:22.888Z,1.60
2018-08-13T16:10:53.411Z,1.97
2018-08-13T16:13:23.839Z,1.47
2018-08-13T16:15:54.327Z,17.60
2018-08-13T16:18:24.982Z,25.33
2018-08-13T16:20:55.574Z,39.93
2018-08-13T16:23:26.222Z,3.27
2018-08-13T16:25:56.804Z,1.80
2018-08-13T16:28:27.456Z,3.13
2018-08-13T16:30:58.020Z,8.20
2018-08-13T16:33:28.748Z,2.70
2018-08-13T16:35:59.413Z,2.17
2018-08-13T16:38:30.020Z,2.30
2018-08-13T16:41:00.554Z,2.77
2018-08-13T16:43:31.129Z,4.10
2018-08-13T16:46:01.801Z,2.83
2018-08-13T16:48:33.380Z,2.83
2018-08-13T16:51:04.061Z,2.47
2018-08-13T16:53:34.688Z,4.37
2018-08-13T16:56:05.478Z,2.40
2018-08-13T16:58:36.037Z,2.80
2018-08-13T17:01:06.758Z,3.17
2018-08-13T17:03:37.192Z,3.30
2018-08-13T17:06:07.979Z,3.23
2018-08-13T17:08:38.668Z,3.10
2018-08-13T17:11:09.331Z,3.53
2018-08-13T17:13:40.017Z,4.50
2018-08-13T17:16:11.392Z,3.33
2018-08-13T17:18:41.942Z,4.40
2018-08-13T17:21:12.636Z,3.17
2018-08-13T17:23:43.053Z,2.73
2018-08-13T17:26:13.636Z,3.60
2018-08-13T17:28:44.333Z,3.73
2018-08-13T17:31:14.895Z,4.73
2018-08-13T17:33:45.565Z,3.20
2018-08-13T17:36:16.155Z,6.70
2018-08-13T17:38:46.836Z,5.00
2018-08-13T17:41:17.523Z,3.93
2018-08-13T17:43:48.084Z,3.20
2018-08-13T17:46:18.855Z,3.67
2018-08-13T17:48:49.416Z,4.23
2018-08-13T17:51:21.052Z,4.00
2018-08-13T17:53:51.633Z,6.70
2018-08-13T17:56:22.114Z,4.03
2018-08-13T17:58:52.580Z,4.40
2018-08-13T18:01:23.145Z,4.57
2018-08-13T18:03:54.045Z,4.13
2018-08-13T18:06:24.512Z,3.40
2018-08-13T18:08:55.294Z,5.20
2018-08-13T18:11:25.821Z,3.80
2018-08-13T18:13:56.443Z,3.40
2018-08-13T18:16:27.200Z,3.37
2018-08-13T18:18:57.759Z,2.93
2018-08-13T18:21:28.348Z,3.40
2018-08-13T18:23:58.987Z,4.53
2018-08-13T18:26:31.573Z,3.80
2018-08-13T18:29:02.165Z,5.40
2018-08-13T18:31:32.596Z,4.30
2018-08-13T18:34:03.276Z,4.23
2018-08-13T18:36:33.879Z,2.70
2018-08-13T18:39:05.342Z,3.43
2018-08-13T18:41:35.954Z,2.87
2018-08-13T18:44:06.640Z,2.97
2018-08-13T18:46:37.285Z,3.90
2018-08-13T18:49:07.835Z,3.13
2018-08-13T18:51:38.481Z,3.67
2018-08-13T18:54:08.909Z,4.03
2018-08-13T18:56:39.597Z,7.00
2018-08-13T18:59:10.301Z,11.00
2018-08-13T19:01:41.050Z,3.30
2018-08-13T19:04:11.557Z,4.83
2018-08-13T19:06:42.255Z,3.97
2018-08-13T19:09:12.942Z,3.30
2018-08-13T19:11:43.582Z,4.67
2018-08-13T19:14:13.756Z,3.63
2018-08-13T19:16:44.413Z,4.10
2018-08-13T19:19:15.011Z,6.87
2018-08-13T19:21:45.612Z,4.00
2018-08-13T19:24:16.132Z,3.60
2018-08-13T19:26:46.674Z,3.73
2018-08-13T19:29:17.328Z,4.10
2018-08-13T19:31:48.882Z,3.57
2018-08-13T19:34:19.310Z,3.40
2018-08-13T19:36:49.833Z,3.60
2018-08-13T19:39:20.383Z,4.17
2018-08-13T19:41:50.767Z,3.57
2018-08-13T19:44:21.312Z,4.07
2018-08-13T19:46:51.732Z,5.50
2018-08-13T19:49:22.107Z,7.47
2018-08-13T19:51:52.611Z,5.40
2018-08-13T19:54:22.972Z,4.83
2018-08-13T19:56:53.479Z,4.57
2018-08-13T19:59:24.133Z,3.10
2018-08-13T20:01:54.738Z,4.70
2018-08-13T20:04:25.254Z,3.80
2018-08-13T20:06:55.803Z,4.17
2018-08-13T20:09:26.227Z,8.10
2018-08-13T20:11:57.859Z,6.13
2018-08-13T20:14:28.467Z,7.03
2018-08-13T20:16:58.973Z,4.83
2018-08-13T20:19:29.584Z,8.23
2018-08-13T20:22:01.520Z,5.73
2018-08-13T20:24:32.047Z,5.77
2018-08-13T20:27:02.624Z,3.67
2018-08-13T20:29:33.176Z,4.90
2018-08-13T20:32:03.841Z,4.90
2018-08-13T20:34:34.476Z,4.87
2018-08-13T20:37:05.081Z,4.13
2018-08-13T20:39:35.683Z,4.63
2018-08-13T20:42:06.219Z,4.27
2018-08-13T20:44:36.908Z,4.00
2018-08-13T20:47:07.410Z,6.13
2018-08-13T20:49:37.848Z,4.70
2018-08-13T20:52:08.261Z,6.20
2018-08-13T20:54:39.016Z,7.70
2018-08-13T20:57:09.458Z,3.73
2018-08-13T20:59:40.120Z,4.43
2018-08-13T21:02:10.722Z,3.63
2018-08-13T21:04:41.387Z,3.40
2018-08-13T21:07:12.028Z,5.80
2018-08-13T21:09:42.567Z,4.17
2018-08-13T21:12:13.133Z,4.33
2018-08-13T21:14:43.914Z,10.30
2018-08-13T21:17:14.510Z,4.40
2018-08-13T21:19:44.992Z,4.17
2018-08-13T21:22:15.576Z,3.70
2018-08-13T21:24:46.177Z,4.03
2018-08-13T21:27:16.835Z,4.83
2018-08-13T21:29:47.332Z,5.30
2018-08-13T21:32:17.756Z,5.00
2018-08-13T21:34:48.297Z,7.10
2018-08-13T21:37:18.840Z,5.27
2018-08-13T21:39:49.361Z,5.83
2018-08-13T21:42:19.960Z,6.70
2018-08-13T21:44:50.794Z,9.53
2018-08-13T21:47:21.315Z,6.67
2018-08-13T21:49:52.005Z,10.03
2018-08-13T21:52:22.687Z,7.53
2018-08-13T21:54:53.288Z,8.20
2018-08-13T21:57:25.040Z,12.07
2018-08-13T21:59:56.216Z,7.73
2018-08-13T22:02:27.556Z,7.50
2018-08-13T22:04:58.328Z,8.40
2018-08-13T22:07:28.855Z,7.83
2018-08-13T22:09:59.325Z,8.47
2018-08-13T22:12:29.929Z,8.50
2018-08-13T22:15:00.480Z,8.43
2018-08-13T22:17:31.151Z,8.83
2018-08-13T22:20:01.620Z,8.07
2018-08-13T22:22:32.127Z,8.47
2018-08-13T22:25:04.936Z,8.70
2018-08-13T22:27:35.385Z,7.93
2018-08-13T22:30:07.483Z,8.63
2018-08-13T22:32:38.098Z,8.73
2018-08-13T22:35:09.984Z,8.90
2018-08-13T22:37:41.760Z,9.17
2018-08-13T22:40:17.000Z,7.83
2018-08-13T22:42:47.681Z,9.73
2018-08-13T22:45:23.316Z,10.10
2018-08-13T22:47:53.821Z,11.73
2018-08-13T22:50:24.296Z,11.63
2018-08-13T22:52:55.038Z,11.80
2018-08-13T22:55:25.334Z,11.57
2018-08-13T22:57:56.008Z,14.60
2018-08-13T23:00:26.537Z,15.17
2018-08-13T23:02:57.139Z,16.97
2018-08-13T23:05:28.385Z,16.60
2018-08-13T23:07:58.924Z,16.80
2018-08-13T23:10:29.503Z,16.40
2018-08-13T23:13:00.128Z,16.37
2018-08-13T23:15:30.659Z,16.43
2018-08-13T23:18:01.341Z,15.17
2018-08-13T23:20:31.926Z,16.07
2018-08-13T23:23:03.453Z,14.47
2018-08-13T23:25:35.452Z,16.90
2018-08-13T23:28:11.307Z,21.20
2018-08-13T23:30:41.691Z,17.40
2018-08-13T23:33:12.188Z,16.60
2018-08-13T23:35:42.813Z,19.70
2018-08-13T23:38:13.355Z,18.37
2018-08-13T23:40:44.107Z,17.83
2018-08-13T23:43:14.576Z,20.10
2018-08-13T23:45:45.256Z,21.60
2018-08-13T23:48:16.083Z,22.70
2018-08-13T23:50:46.606Z,18.37
2018-08-13T23:53:18.155Z,20.03
2018-08-13T23:55:48.589Z,20.37
2018-08-13T23:58:19.180Z,21.33
